Time;durP1;ratioP1;P1;durP2;ratioP2;P2;SDS_P1;SDS_P2;PMS_P1;PMS_P2;Temp;Humidity;BMP_temperature;BMP_pressure;BME280_temperature;BME280_humidity;BME280_pressure;Samples;Min_cycle;Max_cycle;Signal;HPM_P1;HPM_P2
2024/01/26 00:02:15;;;;;;;2.80;2.20;;;;;;;11.43;52.45;101110.77;106775;1259;25341;-54
2024/01/26 00:04:42;;;;;;;2.40;1.80;;;;;;;11.40;52.34;101110.66;107040;1254;26511;-54
2024/01/26 00:07:09;;;;;;;2.80;1.70;;;;;;;11.37;52.52;101118.69;107008;1257;25417;-54
2024/01/26 00:09:37;;;;;;;1.90;1.70;;;;;;;11.32;52.61;101117.94;107234;1257;25458;-54
2024/01/26 00:12:05;;;;;;;2.40;1.90;;;;;;;11.30;52.62;101121.45;107077;1257;25405;-54
2024/01/26 00:14:32;;;;;;;2.10;1.80;;;;;;;11.30;52.60;101123.02;106395;1257;1003087;-54
2024/01/26 00:17:00;;;;;;;2.00;1.80;;;;;;;11.28;52.62;101128.79;106957;1254;22595;-53
2024/01/26 00:19:27;;;;;;;1.80;1.60;;;;;;;11.26;52.56;101133.33;107144;1261;23321;-53
2024/01/26 00:21:54;;;;;;;2.40;1.80;;;;;;;11.24;52.57;101133.02;107021;1256;25408;-53
2024/01/26 00:24:21;;;;;;;2.10;1.70;;;;;;;11.23;52.46;101137.20;107097;1257;25365;-53
2024/01/26 00:26:51;;;;;;;4.00;1.90;;;;;;;11.22;52.56;101135.85;107144;1256;25342;-53
2024/01/26 00:29:18;;;;;;;2.10;1.60;;;;;;;11.21;52.51;101135.16;107111;1251;22714;-53
2024/01/26 00:31:45;;;;;;;2.70;1.80;;;;;;;11.20;52.51;101130.15;107105;1257;25418;-53
2024/01/26 00:34:12;;;;;;;2.00;1.80;;;;;;;11.21;52.42;101128.20;107099;1256;25331;-54
2024/01/26 00:36:39;;;;;;;1.80;1.60;;;;;;;11.22;52.35;101123.67;106378;1254;1003555;-53
2024/01/26 00:39:07;;;;;;;1.90;1.80;;;;;;;11.22;52.40;101125.25;107032;1252;25442;-53
2024/01/26 00:41:34;;;;;;;2.80;1.60;;;;;;;11.21;52.32;101123.52;107139;1267;25368;-54
2024/01/26 00:44:02;;;;;;;2.60;2.00;;;;;;;11.20;52.22;101127.20;107037;1257;25347;-54
2024/01/26 00:46:29;;;;;;;4.80;3.00;;;;;;;11.16;52.34;101128.30;107036;1266;22762;-53
2024/01/26 00:48:56;;;;;;;2.90;1.80;;;;;;;11.14;52.37;101122.27;106364;1254;1003326;-53
2024/01/26 00:51:23;;;;;;;3.80;1.70;;;;;;;11.14;52.37;101117.92;107075;1257;25337;-53
2024/01/26 00:53:51;;;;;;;1.60;1.40;;;;;;;11.14;52.36;101112.73;107106;1256;23090;-53
2024/01/26 00:56:17;;;;;;;1.50;1.40;;;;;;;11.15;52.16;101112.35;106332;1256;1003703;-53
2024/01/26 00:58:44;;;;;;;1.90;1.60;;;;;;;11.16;52.07;101106.44;107101;1254;25388;-53
2024/01/26 01:01:11;;;;;;;2.30;1.70;;;;;;;11.18;52.02;101108.84;107142;1256;25449;-53
2024/01/26 01:03:39;;;;;;;2.90;2.20;;;;;;;11.17;51.98;101106.41;107042;1254;25341;-54
2024/01/26 01:06:06;;;;;;;2.60;2.10;;;;;;;11.18;51.94;101104.48;107173;1256;23068;-53
2024/01/26 01:08:34;;;;;;;2.40;1.90;;;;;;;11.19;51.86;101107.77;107039;1257;25375;-53
2024/01/26 01:11:01;;;;;;;1.50;1.40;;;;;;;11.20;51.83;101111.04;107100;1254;25405;-53
2024/01/26 01:13:28;;;;;;;2.40;1.90;;;;;;;11.20;51.56;101112.62;107168;1257;25328;-53
2024/01/26 01:15:55;;;;;;;2.10;1.90;;;;;;;11.18;51.62;101111.08;107096;1256;25365;-53
2024/01/26 01:18:22;;;;;;;1.90;1.70;;;;;;;11.17;51.52;101113.20;107171;1254;24260;-53
2024/01/26 01:20:50;;;;;;;1.30;1.20;;;;;;;11.14;51.42;101116.36;107140;1258;25418;-53
2024/01/26 01:23:17;;;;;;;7.30;2.00;;;;;;;11.09;51.48;101119.41;106348;1259;1003022;-53
2024/01/26 01:25:44;;;;;;;2.40;1.60;;;;;;;11.04;51.52;101123.17;107271;1254;25340;-54
2024/01/26 01:28:11;;;;;;;1.70;1.60;;;;;;;10.99;51.55;101124.28;107016;1260;25439;-53
2024/01/26 01:30:38;;;;;;;2.00;1.60;;;;;;;10.94;51.78;101124.20;107121;1256;25331;-53
2024/01/26 01:33:05;;;;;;;1.60;1.50;;;;;;;10.90;51.80;101128.23;107041;1257;25337;-53
2024/01/26 01:35:33;;;;;;;1.60;1.40;;;;;;;10.87;51.97;101130.38;106177;1259;1003108;-54
2024/01/26 01:38:00;;;;;;;2.20;1.60;;;;;;;10.83;52.01;101129.77;107064;1254;25561;-53
2024/01/26 01:40:27;;;;;;;1.70;1.60;;;;;;;10.81;52.13;101129.45;106877;1260;25341;-55
2024/01/26 01:42:54;;;;;;;1.70;1.50;;;;;;;10.80;52.16;101128.27;106892;1257;25420;-53
2024/01/26 01:45:21;;;;;;;2.10;1.90;;;;;;;10.79;52.34;101128.98;106870;1257;24217;-53
2024/01/26 01:47:48;;;;;;;1.90;1.30;;;;;;;10.78;52.31;101129.69;106719;1260;24237;-53
2024/01/26 01:50:15;;;;;;;2.40;1.70;;;;;;;10.77;52.46;101128.65;106923;1253;26592;-53
2024/01/26 01:52:43;;;;;;;1.70;1.60;;;;;;;10.79;52.50;101131.75;106853;1256;25362;-53
2024/01/26 01:55:11;;;;;;;1.60;1.50;;;;;;;10.81;52.49;101132.58;106957;1260;25399;-53
2024/01/26 01:57:39;;;;;;;1.50;1.40;;;;;;;10.82;52.44;101133.77;106828;1257;25414;-53
2024/01/26 02:00:15;;;;;;;1.70;1.60;;;;;;;10.83;52.26;101135.50;107028;1254;22572;-54
2024/01/26 02:02:47;;;;;;;2.20;1.50;;;;;;;10.82;52.22;101135.87;106931;1265;25391;-55
2024/01/26 02:05:15;;;;;;;1.20;1.10;;;;;;;10.79;52.22;101132.45;107085;1266;25360;-53
2024/01/26 02:07:47;;;;;;;1.90;1.30;;;;;;;10.76;52.25;101132.30;106397;1258;1003118;-53
2024/01/26 02:10:14;;;;;;;;;;;;;;;10.75;52.38;101129.91;107136;1263;22580;-53
2024/01/26 02:12:41;;;;;;;1.50;1.30;;;;;;;10.74;52.39;101131.99;106042;1262;1002970;-53
2024/01/26 02:15:08;;;;;;;1.50;1.20;;;;;;;10.74;52.45;101133.05;106941;1251;22524;-53
2024/01/26 02:17:39;;;;;;;1.30;1.20;;;;;;;10.73;52.43;101136.54;107069;1256;22768;-53
2024/01/26 02:20:07;;;;;;;1.40;1.30;;;;;;;10.71;52.40;101142.98;107148;1254;22592;-53
2024/01/26 02:22:34;;;;;;;1.40;1.30;;;;;;;10.68;52.44;101145.27;107032;1270;25356;-53
2024/01/26 02:25:01;;;;;;;2.30;1.60;;;;;;;10.66;52.50;101148.63;107124;1260;25359;-53
2024/01/26 02:27:29;;;;;;;1.70;1.60;;;;;;;10.65;52.60;101151.94;107145;1256;25337;-53
2024/01/26 02:29:56;;;;;;;2.10;1.80;;;;;;;10.66;52.52;101152.25;107046;1257;22639;-53
2024/01/26 02:32:23;;;;;;;1.60;1.50;;;;;;;10.67;52.44;101153.98;107132;1256;25353;-53
2024/01/26 02:34:50;;;;;;;2.10;1.40;;;;;;;10.66;52.39;101161.96;107004;1257;25342;-53
2024/01/26 02:37:17;;;;;;;2.20;1.40;;;;;;;10.65;52.44;101162.69;107051;1257;25337;-53
2024/01/26 02:39:44;;;;;;;1.90;1.50;;;;;;;10.65;52.37;101160.08;106286;1266;1003640;-53
2024/01/26 02:42:11;;;;;;;1.40;1.30;;;;;;;10.65;52.34;101167.70;107099;1255;25342;-53
2024/01/26 02:44:38;;;;;;;1.70;1.40;;;;;;;10.65;52.38;101174.14;107044;1258;25340;-53
2024/01/26 02:47:05;;;;;;;2.10;1.60;;;;;;;10.65;52.24;101176.91;107101;1257;25401;-52
2024/01/26 02:49:32;;;;;;;1.40;1.30;;;;;;;10.63;52.10;101179.88;107248;1266;27117;-52
2024/01/26 02:52:01;;;;;;;2.10;1.50;;;;;;;10.61;52.22;101184.44;106935;1264;24192;-52
2024/01/26 02:54:29;;;;;;;1.60;1.50;;;;;;;10.60;52.25;101182.02;106836;1264;25328;-53
2024/01/26 02:56:56;;;;;;;1.60;1.50;;;;;;;10.60;52.21;101186.02;106806;1262;22519;-53
2024/01/26 02:59:23;;;;;;;1.30;1.20;;;;;;;10.59;52.16;101184.48;107138;1254;25318;-53
2024/01/26 03:01:50;;;;;;;2.20;1.70;;;;;;;10.58;52.12;101186.91;107160;1257;24253;-53
2024/01/26 03:04:21;;;;;;;2.20;1.60;;;;;;;10.56;52.10;101189.38;107093;1256;25369;-53
2024/01/26 03:06:50;;;;;;;1.60;1.50;;;;;;;10.54;52.29;101195.98;106881;1259;25363;-53
2024/01/26 03:09:17;;;;;;;1.60;1.20;;;;;;;10.53;52.25;101199.14;107073;1251;25328;-53
2024/01/26 03:11:45;;;;;;;1.40;1.20;;;;;;;10.52;52.23;101204.00;107137;1254;25407;-52
2024/01/26 03:14:12;;;;;;;1.50;1.20;;;;;;;10.51;52.20;101205.05;107136;1257;25328;-52
2024/01/26 03:16:40;;;;;;;1.50;1.40;;;;;;;10.49;52.30;101208.36;107100;1254;25366;-53
2024/01/26 03:19:08;;;;;;;1.60;1.50;;;;;;;10.48;52.26;101217.23;106881;1259;25414;-53
2024/01/26 03:21:42;;;;;;;1.70;1.30;;;;;;;10.46;52.22;101225.94;107126;1253;25340;-53
2024/01/26 03:24:10;;;;;;;1.90;1.40;;;;;;;10.43;52.26;101224.42;106430;1254;1003452;-52
2024/01/26 03:26:37;;;;;;;1.70;1.60;;;;;;;10.39;52.32;101228.29;107171;1254;25281;-52
2024/01/26 03:29:06;;;;;;;2.30;1.70;;;;;;;10.38;52.38;101229.69;107079;1256;25353;-52
2024/01/26 03:31:33;;;;;;;3.20;1.90;;;;;;;10.37;52.40;101233.34;107090;1251;22524;-53
2024/01/26 03:34:00;;;;;;;2.00;1.40;;;;;;;10.36;52.34;101237.01;107008;1257;25375;-52
2024/01/26 03:36:28;;;;;;;1.70;1.60;;;;;;;10.35;52.31;101237.17;107090;1257;22521;-52
2024/01/26 03:38:55;;;;;;;2.00;1.60;;;;;;;10.36;52.27;101238.05;107067;1256;25331;-54
2024/01/26 03:41:22;;;;;;;1.20;1.10;;;;;;;10.37;52.09;101239.93;106848;1257;25478;-54
2024/01/26 03:43:51;;;;;;;1.20;1.00;;;;;;;10.38;51.56;101239.76;106604;1259;22520;-54
2024/01/26 03:46:20;;;;;;;1.60;1.30;;;;;;;10.37;51.14;101239.58;106869;1258;25354;-53
2024/01/26 03:48:48;;;;;;;1.70;1.30;;;;;;;10.36;50.58;101241.16;106504;1254;1003392;-54
2024/01/26 03:51:15;;;;;;;2.00;1.60;;;;;;;10.33;50.27;101238.42;106845;1254;22537;-53
2024/01/26 03:53:42;;;;;;;1.20;1.10;;;;;;;10.32;49.97;101241.23;106758;1266;25439;-53
2024/01/26 03:56:10;;;;;;;1.40;1.30;;;;;;;10.29;49.59;101243.34;107006;1263;25369;-53
2024/01/26 03:58:36;;;;;;;1.30;1.00;;;;;;;10.25;49.54;101247.38;107140;1257;25335;-53
2024/01/26 04:01:03;;;;;;;1.50;1.20;;;;;;;10.25;49.63;101252.92;107076;1261;24202;-54
2024/01/26 04:03:30;;;;;;;1.40;1.30;;;;;;;10.26;49.80;101254.83;107143;1259;25331;-53
2024/01/26 04:05:58;;;;;;;1.80;1.30;;;;;;;10.25;49.87;101252.73;107171;1257;25331;-54
2024/01/26 04:08:26;;;;;;;1.30;1.20;;;;;;;10.26;49.91;101257.95;106256;1253;1003482;-53
2024/01/26 04:10:53;;;;;;;1.40;1.30;;;;;;;10.26;49.90;101256.21;106809;1267;25324;-53
2024/01/26 04:13:20;;;;;;;1.40;1.30;;;;;;;10.27;49.86;101258.45;107140;1265;25414;-54
2024/01/26 04:15:47;;;;;;;1.30;1.20;;;;;;;10.27;49.73;101260.70;106450;1263;1002901;-53
2024/01/26 04:18:14;;;;;;;1.30;1.20;;;;;;;10.29;49.58;101265.00;107141;1254;25366;-53
2024/01/26 04:20:42;;;;;;;1.40;1.20;;;;;;;10.29;49.30;101269.52;107096;1264;25331;-54
2024/01/26 04:23:09;;;;;;;1.30;1.00;;;;;;;10.20;49.41;101272.91;107074;1251;25405;-53
2024/01/26 04:25:37;;;;;;;1.20;1.10;;;;;;;10.04;49.70;101272.73;107113;1256;25418;-53
2024/01/26 04:28:04;;;;;;;1.00;1.00;;;;;;;10.00;49.61;101273.13;107035;1257;25337;-54
2024/01/26 04:30:31;;;;;;;1.60;1.00;;;;;;;9.97;49.51;101276.96;107031;1257;25329;-53
2024/01/26 04:32:59;;;;;;;1.70;1.30;;;;;;;9.95;49.40;101279.77;107133;1263;25350;-53
2024/01/26 04:35:26;;;;;;;1.80;1.20;;;;;;;9.90;49.34;101281.05;107135;1254;22524;-53
2024/01/26 04:37:53;;;;;;;0.80;0.80;;;;;;;9.88;49.09;101286.25;106716;1265;25359;-53
2024/01/26 04:40:20;;;;;;;0.90;0.80;;;;;;;9.86;48.92;101285.74;106876;1267;25359;-53
2024/01/26 04:42:47;;;;;;;1.30;1.00;;;;;;;9.84;48.72;101288.37;106282;1263;1002732;-54
2024/01/26 04:45:16;;;;;;;1.80;1.10;;;;;;;9.83;48.45;101290.64;107013;1266;24240;-53
2024/01/26 04:47:43;;;;;;;1.10;1.00;;;;;;;9.81;48.19;101294.64;107183;1267;25329;-53
2024/01/26 04:50:10;;;;;;;2.00;1.30;;;;;;;9.80;47.95;101294.47;107095;1257;25341;-53
2024/01/26 04:52:38;;;;;;;1.10;0.80;;;;;;;9.79;47.88;101299.16;106271;1259;1003434;-53
2024/01/26 04:55:09;;;;;;;1.50;0.80;;;;;;;9.76;47.85;101296.09;107159;1257;25375;-53
2024/01/26 04:57:36;;;;;;;0.90;0.80;;;;;;;9.73;47.85;101300.27;106435;1257;1003072;-54
2024/01/26 05:00:04;;;;;;;2.90;1.00;;;;;;;9.70;47.80;101302.55;107106;1258;25455;-54
2024/01/26 05:02:31;;;;;;;1.20;0.80;;;;;;;9.66;47.75;101301.20;106982;1258;22539;-53
2024/01/26 05:04:58;;;;;;;0.80;0.70;;;;;;;9.65;47.56;101310.56;107124;1257;25341;-53
2024/01/26 05:07:25;;;;;;;1.00;0.90;;;;;;;9.63;47.48;101313.34;107128;1270;25414;-53
2024/01/26 05:09:52;;;;;;;1.50;0.90;;;;;;;9.61;47.37;101320.11;107157;1254;22988;-53
2024/01/26 05:12:19;;;;;;;1.10;1.00;;;;;;;9.60;47.27;101326.36;107023;1260;25356;-53
2024/01/26 05:14:46;;;;;;;0.70;0.70;;;;;;;9.59;47.17;101328.11;106338;1260;1002937;-53
2024/01/26 05:17:13;;;;;;;0.80;0.70;;;;;;;9.58;47.00;101331.41;107086;1257;22518;-53
2024/01/26 05:19:40;;;;;;;1.70;1.00;;;;;;;9.54;46.94;101335.77;107103;1260;25340;-53
2024/01/26 05:22:10;;;;;;;1.10;0.60;;;;;;;9.51;46.94;101337.35;106478;1257;1003485;-53
2024/01/26 05:24:36;;;;;;;0.90;0.70;;;;;;;9.48;46.96;101340.85;107016;1257;25331;-53
2024/01/26 05:27:04;;;;;;;1.00;0.60;;;;;;;9.46;46.98;101338.79;106375;1263;1002987;-53
2024/01/26 05:29:31;;;;;;;0.70;0.70;;;;;;;9.45;47.07;101341.21;107243;1257;25494;-53
2024/01/26 05:31:58;;;;;;;0.80;0.80;;;;;;;9.46;46.93;101341.73;106466;1264;1003695;-53
2024/01/26 05:34:25;;;;;;;1.50;0.80;;;;;;;9.45;46.95;101346.77;107297;1257;25384;-53
2024/01/26 05:36:52;;;;;;;1.50;1.00;;;;;;;9.48;46.84;101349.15;107089;1257;22536;-54
2024/01/26 05:39:19;;;;;;;0.70;0.70;;;;;;;9.68;46.46;101347.94;106931;1257;25514;-53
2024/01/26 05:41:47;;;;;;;2.00;1.00;;;;;;;9.73;46.33;101347.91;106459;1257;1003564;-54
2024/01/26 05:44:14;;;;;;;1.10;0.90;;;;;;;9.75;46.21;101351.35;106062;1259;1003023;-53
2024/01/26 05:46:42;;;;;;;0.90;0.80;;;;;;;9.75;46.22;101351.17;106747;1254;24192;-54
2024/01/26 05:49:09;;;;;;;1.20;1.10;;;;;;;9.74;45.95;101353.98;106787;1256;25401;-54
2024/01/26 05:51:36;;;;;;;1.10;1.00;;;;;;;9.70;45.90;101353.66;107108;1263;25331;-53
2024/01/26 05:54:03;;;;;;;1.60;1.00;;;;;;;9.67;45.94;101354.73;107045;1255;25487;-53
2024/01/26 05:56:31;;;;;;;1.30;1.10;;;;;;;9.64;46.20;101355.59;107128;1257;25369;-53
2024/01/26 05:58:58;;;;;;;1.60;1.10;;;;;;;9.66;46.32;101362.52;106204;1267;1003708;-53
2024/01/26 06:01:25;;;;;;;1.80;1.30;;;;;;;9.67;46.10;101363.55;107097;1267;25376;-54
2024/01/26 06:03:52;;;;;;;1.30;1.00;;;;;;;9.69;46.01;101365.44;106974;1257;25347;-54
2024/01/26 06:06:19;;;;;;;1.10;0.90;;;;;;;9.70;46.05;101368.91;106170;1275;1003746;-53
2024/01/26 06:08:46;;;;;;;1.30;1.00;;;;;;;9.71;46.03;101369.06;107078;1267;25354;-54
2024/01/26 06:11:13;;;;;;;1.30;1.00;;;;;;;9.72;46.10;101377.02;107095;1264;22593;-53
2024/01/26 06:13:40;;;;;;;1.50;1.10;;;;;;;9.73;46.25;101379.97;106299;1263;1003734;-53
2024/01/26 06:16:09;;;;;;;1.30;1.20;;;;;;;9.74;46.18;101375.27;107134;1264;25347;-53
2024/01/26 06:18:36;;;;;;;1.70;1.40;;;;;;;9.76;46.32;101381.67;106808;1263;25332;-53
2024/01/26 06:21:04;;;;;;;1.20;1.10;;;;;;;9.79;46.40;101381.64;106902;1258;22557;-53
2024/01/26 06:23:31;;;;;;;1.80;1.40;;;;;;;9.84;46.26;101382.47;106863;1256;24349;-53
2024/01/26 06:25:58;;;;;;;2.20;1.60;;;;;;;9.90;46.29;101383.11;107133;1263;25418;-53
2024/01/26 06:28:25;;;;;;;2.80;1.20;;;;;;;9.96;46.35;101384.96;107093;1264;25401;-53
2024/01/26 06:30:52;;;;;;;1.40;1.10;;;;;;;10.00;46.19;101385.09;106860;1260;25360;-53
2024/01/26 06:33:19;;;;;;;1.60;1.30;;;;;;;10.03;46.06;101390.61;106879;1269;25408;-53
2024/01/26 06:35:47;;;;;;;2.40;1.20;;;;;;;10.05;46.06;101388.16;106851;1266;25686;-53
2024/01/26 06:38:14;;;;;;;1.00;0.90;;;;;;;10.06;46.02;101389.54;107078;1257;25345;-53
2024/01/26 06:40:41;;;;;;;1.20;1.10;;;;;;;10.07;45.91;101387.27;107089;1256;25331;-53
2024/01/26 06:43:08;;;;;;;1.50;0.80;;;;;;;10.08;45.84;101390.21;107101;1257;25399;-54
2024/01/26 06:45:36;;;;;;;1.30;1.00;;;;;;;10.07;45.81;101386.07;107055;1257;25318;-53
2024/01/26 06:48:04;;;;;;;1.80;1.10;;;;;;;10.08;45.75;101390.73;106931;1267;25408;-53
2024/01/26 06:50:33;;;;;;;1.30;1.00;;;;;;;10.10;45.89;101389.17;107146;1260;25385;-53
2024/01/26 06:53:00;;;;;;;1.30;1.10;;;;;;;10.11;45.87;101393.00;106870;1260;25369;-54
2024/01/26 06:55:27;;;;;;;2.30;1.20;;;;;;;10.14;45.79;101397.64;106842;1257;25481;-53
2024/01/26 06:57:54;;;;;;;2.20;1.30;;;;;;;10.13;45.64;101399.56;106043;1272;1003115;-54
2024/01/26 07:00:22;;;;;;;2.80;1.20;;;;;;;10.11;45.47;101401.66;107019;1260;24182;-54
2024/01/26 07:02:49;;;;;;;7.80;4.70;;;;;;;10.11;45.62;101405.48;107257;1254;25369;-53
2024/01/26 07:05:16;;;;;;;11.70;7.50;;;;;;;10.12;45.57;101400.29;106788;1266;25350;-53
2024/01/26 07:07:43;;;;;;;3.90;3.00;;;;;;;10.13;45.64;101395.59;107056;1263;25347;-53
2024/01/26 07:10:11;;;;;;;2.90;2.40;;;;;;;10.13;45.44;101396.96;106824;1267;25436;-53
2024/01/26 07:12:38;;;;;;;2.40;2.10;;;;;;;10.11;45.63;101394.90;107220;1255;22528;-54
2024/01/26 07:15:06;;;;;;;1.90;1.60;;;;;;;10.11;45.51;101400.61;107203;1256;22524;-53
2024/01/26 07:17:34;;;;;;;2.80;2.10;;;;;;;10.11;45.56;101401.14;106822;1254;25364;-53
2024/01/26 07:20:03;;;;;;;3.50;2.30;;;;;;;10.10;45.54;101402.17;106813;1270;25356;-53
2024/01/26 07:22:31;;;;;;;2.80;2.30;;;;;;;10.07;45.51;101405.48;107118;1261;25401;-53
2024/01/26 07:24:59;;;;;;;2.40;2.00;;;;;;;10.02;45.56;101411.60;106871;1268;25331;-53
2024/01/26 07:27:27;;;;;;;2.30;1.70;;;;;;;9.95;45.62;101410.27;106354;1256;1003608;-54
2024/01/26 07:29:54;;;;;;;3.00;1.90;;;;;;;9.86;45.70;101409.99;107046;1264;25386;-53
2024/01/26 07:32:21;;;;;;;1.90;1.70;;;;;;;9.79;45.88;101412.99;107153;1260;25491;-54
2024/01/26 07:34:48;;;;;;;2.30;2.00;;;;;;;9.78;46.14;101414.73;106872;1264;25356;-53
2024/01/26 07:37:15;;;;;;;4.40;2.30;;;;;;;9.79;46.01;101416.98;106740;1261;25418;-53
2024/01/26 07:39:42;;;;;;;2.10;1.90;;;;;;;9.81;46.20;101414.54;106079;1264;1002980;-53
2024/01/26 07:42:10;;;;;;;2.90;2.20;;;;;;;9.83;46.17;101413.48;106853;1258;25016;-53
2024/01/26 07:44:37;;;;;;;2.10;1.90;;;;;;;9.86;46.39;101413.81;106510;1260;25369;-53
2024/01/26 07:47:05;;;;;;;2.10;1.80;;;;;;;9.91;46.35;101416.02;106815;1257;25365;-53
2024/01/26 07:49:32;;;;;;;2.10;1.70;;;;;;;9.95;46.24;101417.72;106905;1258;25360;-53
2024/01/26 07:52:00;;;;;;;2.50;1.80;;;;;;;9.98;46.42;101420.47;106749;1261;25331;-54
2024/01/26 07:54:27;;;;;;;2.40;1.90;;;;;;;10.00;46.30;101427.90;107131;1263;25341;-53
2024/01/26 07:56:54;;;;;;;1.70;1.50;;;;;;;10.02;46.40;101426.33;106459;1257;1002914;-53
2024/01/26 07:59:22;;;;;;;3.00;2.60;;;;;;;10.03;46.18;101424.07;107083;1257;25328;-53
2024/01/26 08:01:49;;;;;;;2.70;1.90;;;;;;;10.03;46.04;101424.23;107133;1260;25369;-53
2024/01/26 08:04:16;;;;;;;3.20;2.40;;;;;;;10.01;45.94;101425.80;106851;1257;25481;-54
2024/01/26 08:06:43;;;;;;;1.90;1.60;;;;;;;9.99;46.21;101425.13;106830;1262;25331;-53
2024/01/26 08:09:10;;;;;;;1.80;1.70;;;;;;;10.02;46.35;101425.27;107119;1263;25878;-53
2024/01/26 08:11:38;;;;;;;1.80;1.40;;;;;;;10.05;46.16;101430.97;106816;1274;25341;-53
2024/01/26 08:14:06;;;;;;;1.80;1.60;;;;;;;10.08;46.04;101426.78;107136;1257;25418;-53
2024/01/26 08:16:34;;;;;;;2.30;1.60;;;;;;;10.11;46.01;101428.17;106907;1257;24215;-53
2024/01/26 08:19:01;;;;;;;2.00;1.70;;;;;;;10.16;45.85;101429.88;107083;1264;25491;-53
2024/01/26 08:21:29;;;;;;;2.40;1.70;;;;;;;10.20;45.87;101432.61;106772;1274;25420;-53
2024/01/26 08:23:57;;;;;;;1.60;1.40;;;;;;;10.21;45.69;101438.85;107133;1256;25353;-53
2024/01/26 08:26:26;;;;;;;3.20;1.60;;;;;;;10.20;45.58;101440.24;106369;1257;1003325;-53
2024/01/26 08:28:54;;;;;;;2.60;1.50;;;;;;;10.17;45.64;101447.89;107098;1254;25901;-53
2024/01/26 08:31:21;;;;;;;2.10;1.90;;;;;;;10.19;45.94;101452.91;107098;1270;25429;-53
2024/01/26 08:33:48;;;;;;;1.60;1.50;;;;;;;10.21;45.78;101448.73;107212;1261;25369;-53
2024/01/26 08:36:15;;;;;;;2.90;1.50;;;;;;;10.23;45.67;101448.52;107084;1267;25342;-53
2024/01/26 08:38:43;;;;;;;1.80;1.50;;;;;;;10.25;45.61;101457.01;107080;1266;25369;-54
2024/01/26 08:41:10;;;;;;;2.70;1.70;;;;;;;10.23;45.63;101459.45;107018;1258;25359;-53
2024/01/26 08:43:37;;;;;;;2.40;2.10;;;;;;;10.20;45.64;101463.12;107126;1258;25423;-53
2024/01/26 08:46:04;;;;;;;2.60;1.80;;;;;;;10.16;45.87;101467.31;107130;1254;25481;-53
2024/01/26 08:48:31;;;;;;;3.10;2.60;;;;;;;10.17;45.76;101469.56;106838;1266;25375;-53
2024/01/26 08:50:58;;;;;;;2.40;1.60;;;;;;;10.19;45.68;101466.26;107138;1263;22531;-53
2024/01/26 08:53:26;;;;;;;2.10;1.50;;;;;;;10.20;45.55;101466.23;107112;1267;25322;-53
2024/01/26 08:55:53;;;;;;;1.70;1.60;;;;;;;10.17;45.43;101463.84;106372;1257;1003833;-53
2024/01/26 08:58:20;;;;;;;4.30;1.50;;;;;;;10.16;45.42;101468.19;106925;1257;25491;-53
2024/01/26 09:00:47;;;;;;;2.30;1.60;;;;;;;10.12;45.59;101459.73;107068;1267;25395;-53
2024/01/26 09:03:15;;;;;;;2.70;1.70;;;;;;;10.10;45.66;101456.27;107080;1266;25481;-53
2024/01/26 09:05:42;;;;;;;2.20;2.00;;;;;;;10.09;45.80;101457.30;107116;1267;25322;-53
2024/01/26 09:08:09;;;;;;;2.20;1.70;;;;;;;10.08;45.98;101460.41;106269;1255;1002928;-53
2024/01/26 09:10:36;;;;;;;1.80;1.50;;;;;;;10.09;46.26;101464.05;107055;1267;25401;-53
2024/01/26 09:13:03;;;;;;;2.70;2.30;;;;;;;10.11;45.80;101466.33;107241;1251;25417;-53
2024/01/26 09:15:30;;;;;;;2.10;1.80;;;;;;;10.08;45.96;101467.52;107126;1260;25388;-53
2024/01/26 09:17:57;;;;;;;2.20;1.70;;;;;;;10.04;45.86;101464.27;107021;1274;22628;-53
2024/01/26 09:20:25;;;;;;;2.70;2.30;;;;;;;10.04;46.00;101468.42;107073;1267;25433;-53
2024/01/26 09:22:52;;;;;;;5.20;4.00;;;;;;;10.04;46.31;101462.36;107083;1254;25340;-53
2024/01/26 09:25:19;;;;;;;3.70;3.30;;;;;;;10.09;46.48;101459.39;107041;1267;25334;-53
2024/01/26 09:27:48;;;;;;;2.30;2.10;;;;;;;10.16;46.15;101460.90;106798;1265;24219;-53
2024/01/26 09:30:15;;;;;;;3.50;1.60;;;;;;;10.20;45.82;101457.05;106352;1258;1003376;-53
2024/01/26 09:32:43;;;;;;;4.30;2.30;;;;;;;10.20;45.71;101452.55;107068;1267;25477;-54
2024/01/26 09:35:10;;;;;;;2.80;2.10;;;;;;;10.18;45.61;101449.29;106805;1267;25406;-53
2024/01/26 09:37:39;;;;;;;2.10;1.70;;;;;;;10.17;45.83;101451.70;106058;1274;1003258;-52
2024/01/26 09:40:07;;;;;;;2.50;1.90;;;;;;;10.16;45.67;101452.59;106823;1251;24503;-52
2024/01/26 09:42:34;;;;;;;3.60;1.60;;;;;;;10.14;45.80;101448.95;106780;1257;25331;-52
2024/01/26 09:45:03;;;;;;;3.50;2.50;;;;;;;10.13;45.92;101450.88;107031;1262;24358;-52
2024/01/26 09:47:38;;;;;;;3.00;2.30;;;;;;;10.13;45.68;101450.36;106952;1270;25331;-52
2024/01/26 09:50:06;;;;;;;1.80;1.70;;;;;;;10.13;45.79;101452.09;106337;1254;1003306;-52
2024/01/26 09:52:39;;;;;;;1.50;1.40;;;;;;;10.15;45.69;101454.15;106808;1267;24272;-52
2024/01/26 09:55:06;;;;;;;2.80;1.30;;;;;;;10.18;45.58;101451.71;106841;1267;25360;-52
2024/01/26 09:57:33;;;;;;;1.90;1.80;;;;;;;10.19;45.55;101448.41;107140;1266;25484;-53
2024/01/26 10:00:01;;;;;;;2.10;1.50;;;;;;;10.18;45.77;101452.05;107040;1267;25350;-54
2024/01/26 10:02:31;;;;;;;1.70;1.40;;;;;;;10.15;46.30;101456.75;106297;1267;1003457;-52
2024/01/26 10:04:59;;;;;;;1.90;1.70;;;;;;;10.11;46.74;101457.83;107077;1270;25334;-52
2024/01/26 10:07:26;;;;;;;3.00;2.00;;;;;;;10.07;47.43;101453.14;106374;1257;1003450;-52
2024/01/26 10:09:53;;;;;;;2.10;1.90;;;;;;;10.03;47.85;101452.32;107210;1266;25375;-52
2024/01/26 10:12:23;;;;;;;3.50;2.90;;;;;;;10.00;48.06;101452.35;107098;1267;24285;-52
2024/01/26 10:15:01;;;;;;;2.70;2.20;;;;;;;10.00;48.36;101445.94;107069;1251;23289;-52
2024/01/26 10:17:30;;;;;;;2.50;2.20;;;;;;;10.03;48.66;101440.36;107014;1266;22528;-52
2024/01/26 10:20:13;;;;;;;3.30;2.30;;;;;;;10.07;48.76;101440.48;106816;1274;25427;-52
2024/01/26 10:22:42;;;;;;;5.50;2.90;;;;;;;10.13;48.76;101435.29;106955;1267;24257;-56
2024/01/26 10:25:09;;;;;;;4.30;3.10;;;;;;;10.22;48.57;101437.27;106753;1267;369620;-52
2024/01/26 10:27:37;;;;;;;3.70;2.50;;;;;;;10.29;47.94;101434.95;106963;1269;25398;-52
2024/01/26 10:30:06;;;;;;;4.20;2.20;;;;;;;10.31;47.93;101431.64;107076;1254;24467;-52
2024/01/26 10:32:34;;;;;;;3.20;2.10;;;;;;;10.35;47.98;101431.06;107156;1267;24215;-54
2024/01/26 10:35:03;;;;;;;2.40;1.80;;;;;;;10.41;47.73;101433.77;107016;1256;26627;-53
2024/01/26 10:37:32;;;;;;;3.40;3.00;;;;;;;10.44;47.80;101430.29;105636;1276;1003790;-53
2024/01/26 10:40:00;;;;;;;2.40;1.90;;;;;;;10.47;48.06;101430.94;106606;1270;24758;-53
2024/01/26 10:42:32;;;;;;;3.20;2.20;;;;;;;10.54;47.69;101431.23;105839;1269;1003567;-53
2024/01/26 10:45:00;;;;;;;1.90;1.70;;;;;;;10.57;47.26;101434.13;106472;1273;25405;-53
2024/01/26 10:47:28;;;;;;;2.20;1.90;;;;;;;10.53;47.00;101433.65;106645;1270;22552;-53
2024/01/26 10:50:01;;;;;;;2.00;1.70;;;;;;;10.51;47.34;101430.20;106689;1255;25370;-54
2024/01/26 10:52:30;;;;;;;3.80;3.10;;;;;;;10.52;47.18;101428.98;105597;1270;1003668;-53
2024/01/26 10:54:57;;;;;;;2.20;2.00;;;;;;;10.53;47.38;101424.64;106446;1270;24224;-54
2024/01/26 10:57:24;;;;;;;4.50;1.90;;;;;;;10.56;47.42;101425.83;106310;1270;25408;-54
2024/01/26 10:59:51;;;;;;;2.10;1.70;;;;;;;10.63;47.12;101424.70;106710;1271;25356;-53
2024/01/26 11:02:22;;;;;;;1.40;1.30;;;;;;;10.68;46.66;101428.80;106009;1272;1003485;-54
2024/01/26 11:04:49;;;;;;;2.40;1.70;;;;;;;10.69;46.09;101431.57;106908;1270;22530;-52
2024/01/26 11:07:22;;;;;;;1.60;1.40;;;;;;;10.66;45.88;101427.79;106861;1269;26311;-52
2024/01/26 11:09:49;;;;;;;1.90;1.50;;;;;;;10.63;45.90;101423.66;106250;1269;1002837;-52
2024/01/26 11:12:27;;;;;;;1.70;1.60;;;;;;;10.61;45.76;101426.62;106781;1251;25341;-53
2024/01/26 11:15:14;;;;;;;2.10;1.90;;;;;;;10.56;45.79;101427.56;107218;1263;25485;-53
2024/01/26 11:17:52;;;;;;;2.40;1.60;;;;;;;10.52;45.96;101421.87;107222;1266;23334;-53
2024/01/26 11:20:21;;;;;;;3.60;1.80;;;;;;;10.52;46.32;101423.77;106418;1267;1003010;-53